sensor_id;sensor_type;location;lat;lon;timestamp;pressure;altitude;pressure_sealevel;temperature;humidity
67109;BME280;54027;50.786;7.058;2023-11-19T00:02:19;100599.28;;;10.76;100.00
67109;BME280;54027;50.786;7.058;2023-11-19T00:04:53;100595.88;;;10.74;100.00
67109;BME280;54027;50.786;7.058;2023-11-19T00:07:19;100600.19;;;10.72;100.00
67109;BME280;54027;50.786;7.058;2023-11-19T00:09:45;100597.63;;;10.70;100.00
67109;BME280;54027;50.786;7.058;2023-11-19T00:12:10;100580.44;;;10.68;100.00
67109;BME280;54027;50.786;7.058;2023-11-19T00:14:35;100578.66;;;10.71;100.00
67109;BME280;54027;50.786;7.058;2023-11-19T00:17:01;100575.25;;;10.68;100.00
67109;BME280;54027;50.786;7.058;2023-11-19T00:19:48;100574.38;;;10.69;100.00
67109;BME280;54027;50.786;7.058;2023-11-19T00:22:17;100563.13;;;10.71;100.00
67109;BME280;54027;50.786;7.058;2023-11-19T00:24:42;100567.44;;;10.72;100.00
67109;BME280;54027;50.786;7.058;2023-11-19T00:27:07;100566.56;;;10.73;100.00
67109;BME280;54027;50.786;7.058;2023-11-19T00:29:33;100552.75;;;10.76;100.00
67109;BME280;54027;50.786;7.058;2023-11-19T00:31:58;100539.81;;;10.74;100.00
67109;BME280;54027;50.786;7.058;2023-11-19T00:34:23;100558.78;;;10.76;100.00
67109;BME280;54027;50.786;7.058;2023-11-19T00:36:49;100538.94;;;10.80;100.00
67109;BME280;54027;50.786;7.058;2023-11-19T00:39:15;100543.22;;;10.79;100.00
67109;BME280;54027;50.786;7.058;2023-11-19T00:41:40;100559.59;;;10.80;100.00
67109;BME280;54027;50.786;7.058;2023-11-19T00:44:06;100564.78;;;10.80;100.00
67109;BME280;54027;50.786;7.058;2023-11-19T00:46:31;100559.56;;;10.83;100.00
67109;BME280;54027;50.786;7.058;2023-11-19T00:48:58;100560.34;;;10.88;100.00
67109;BME280;54027;50.786;7.058;2023-11-19T00:51:25;100556.88;;;10.91;100.00
67109;BME280;54027;50.786;7.058;2023-11-19T00:53:51;100561.19;;;10.92;100.00
67109;BME280;54027;50.786;7.058;2023-11-19T00:56:18;100555.09;;;10.94;100.00
67109;BME280;54027;50.786;7.058;2023-11-19T00:58:44;100569.72;;;10.95;100.00
67109;BME280;54027;50.786;7.058;2023-11-19T01:01:13;100562.81;;;10.96;100.00
67109;BME280;54027;50.786;7.058;2023-11-19T01:03:38;100553.34;;;10.96;100.00
67109;BME280;54027;50.786;7.058;2023-11-19T01:06:04;100542.13;;;10.97;100.00
67109;BME280;54027;50.786;7.058;2023-11-19T01:08:30;100543.84;;;10.97;100.00
67109;BME280;54027;50.786;7.058;2023-11-19T01:10:55;100536.13;;;10.94;100.00
67109;BME280;54027;50.786;7.058;2023-11-19T01:13:20;100525.78;;;10.94;100.00
67109;BME280;54027;50.786;7.058;2023-11-19T01:15:46;100531.84;;;10.93;100.00
67109;BME280;54027;50.786;7.058;2023-11-19T01:18:12;100534.47;;;10.90;100.00
67109;BME280;54027;50.786;7.058;2023-11-19T01:20:38;100533.56;;;10.94;100.00
67109;BME280;54027;50.786;7.058;2023-11-19T01:23:03;100533.53;;;10.95;100.00
67109;BME280;54027;50.786;7.058;2023-11-19T01:25:29;100531.78;;;10.96;100.00
67109;BME280;54027;50.786;7.058;2023-11-19T01:27:54;100532.66;;;10.96;100.00
67109;BME280;54027;50.786;7.058;2023-11-19T01:30:22;100535.25;;;10.98;100.00
67109;BME280;54027;50.786;7.058;2023-11-19T01:32:48;100534.38;;;10.97;100.00
67109;BME280;54027;50.786;7.058;2023-11-19T01:35:13;100532.66;;;10.98;100.00
67109;BME280;54027;50.786;7.058;2023-11-19T01:44:17;100528.31;;;10.98;100.00
67109;BME280;54027;50.786;7.058;2023-11-19T01:46:44;100525.72;;;11.00;100.00
67109;BME280;54027;50.786;7.058;2023-11-19T01:49:14;100526.53;;;11.03;100.00
67109;BME280;54027;50.786;7.058;2023-11-19T01:51:43;100529.03;;;11.09;100.00
67109;BME280;54027;50.786;7.058;2023-11-19T01:54:08;100538.44;;;11.15;100.00
67109;BME280;54027;50.786;7.058;2023-11-19T01:56:35;100521.97;;;11.20;100.00
67109;BME280;54027;50.786;7.058;2023-11-19T02:01:54;100518.38;;;11.29;100.00
67109;BME280;54027;50.786;7.058;2023-11-19T02:04:21;100520.91;;;11.33;100.00
67109;BME280;54027;50.786;7.058;2023-11-19T02:06:48;100511.34;;;11.37;100.00
67109;BME280;54027;50.786;7.058;2023-11-19T02:12:31;100536.25;;;11.46;100.00
67109;BME280;54027;50.786;7.058;2023-11-19T02:15:01;100531.88;;;11.51;100.00
67109;BME280;54027;50.786;7.058;2023-11-19T02:17:30;100529.22;;;11.55;100.00
67109;BME280;54027;50.786;7.058;2023-11-19T02:20:06;100516.25;;;11.57;100.00
67109;BME280;54027;50.786;7.058;2023-11-19T02:22:34;100499.81;;;11.59;100.00
67109;BME280;54027;50.786;7.058;2023-11-19T02:25:02;100494.69;;;11.55;100.00
67109;BME280;54027;50.786;7.058;2023-11-19T02:30:26;100480.19;;;11.46;100.00
67109;BME280;54027;50.786;7.058;2023-11-19T02:32:54;100484.66;;;11.37;100.00
67109;BME280;54027;50.786;7.058;2023-11-19T02:35:22;100488.25;;;11.26;100.00
67109;BME280;54027;50.786;7.058;2023-11-19T02:37:48;100487.50;;;11.18;100.00
67109;BME280;54027;50.786;7.058;2023-11-19T02:40:13;100487.59;;;11.12;100.00
67109;BME280;54027;50.786;7.058;2023-11-19T02:42:39;100492.81;;;11.08;100.00
67109;BME280;54027;50.786;7.058;2023-11-19T02:45:05;100490.31;;;11.03;100.00
67109;BME280;54027;50.786;7.058;2023-11-19T02:47:32;100492.97;;;10.99;100.00
67109;BME280;54027;50.786;7.058;2023-11-19T02:49:57;100483.56;;;10.95;100.00
67109;BME280;54027;50.786;7.058;2023-11-19T02:52:23;100488.78;;;10.90;100.00
67109;BME280;54027;50.786;7.058;2023-11-19T02:54:51;100489.69;;;10.88;100.00
67109;BME280;54027;50.786;7.058;2023-11-19T02:57:16;100478.53;;;10.84;100.00
67109;BME280;54027;50.786;7.058;2023-11-19T02:59:44;100469.13;;;10.78;100.00
67109;BME280;54027;50.786;7.058;2023-11-19T03:02:10;100469.97;;;10.79;100.00
67109;BME280;54027;50.786;7.058;2023-11-19T03:04:37;100463.94;;;10.80;100.00
67109;BME280;54027;50.786;7.058;2023-11-19T03:07:05;100459.69;;;10.76;100.00
67109;BME280;54027;50.786;7.058;2023-11-19T03:09:32;100462.19;;;10.82;100.00
67109;BME280;54027;50.786;7.058;2023-11-19T03:11:58;100464.69;;;10.87;100.00
67109;BME280;54027;50.786;7.058;2023-11-19T03:14:24;100462.06;;;10.90;100.00
67109;BME280;54027;50.786;7.058;2023-11-19T03:16:49;100457.66;;;10.96;100.00
67109;BME280;54027;50.786;7.058;2023-11-19T03:19:16;100457.75;;;10.92;100.00
67109;BME280;54027;50.786;7.058;2023-11-19T03:21:41;100456.03;;;10.91;100.00
67109;BME280;54027;50.786;7.058;2023-11-19T03:24:06;100460.38;;;10.89;100.00
67109;BME280;54027;50.786;7.058;2023-11-19T03:26:33;100462.06;;;10.90;100.00
67109;BME280;54027;50.786;7.058;2023-11-19T03:28:59;100455.22;;;10.87;100.00
67109;BME280;54027;50.786;7.058;2023-11-19T03:31:24;100447.50;;;10.84;100.00
67109;BME280;54027;50.786;7.058;2023-11-19T03:33:50;100452.72;;;10.83;100.00
67109;BME280;54027;50.786;7.058;2023-11-19T03:39:22;100452.72;;;10.81;100.00
67109;BME280;54027;50.786;7.058;2023-11-19T03:41:50;100456.06;;;10.88;100.00
67109;BME280;54027;50.786;7.058;2023-11-19T03:44:15;100449.16;;;10.88;100.00
67109;BME280;54027;50.786;7.058;2023-11-19T03:47:15;100457.44;;;11.11;100.00
67109;BME280;54027;50.786;7.058;2023-11-19T03:49:41;100449.53;;;11.19;100.00
67109;BME280;54027;50.786;7.058;2023-11-19T03:52:07;100449.63;;;11.13;100.00
67109;BME280;54027;50.786;7.058;2023-11-19T03:54:32;100449.72;;;11.10;100.00
67109;BME280;54027;50.786;7.058;2023-11-19T03:56:58;100458.34;;;11.07;100.00
67109;BME280;54027;50.786;7.058;2023-11-19T03:59:25;100465.97;;;11.18;100.00
67109;BME280;54027;50.786;7.058;2023-11-19T04:01:50;100463.13;;;11.31;100.00
67109;BME280;54027;50.786;7.058;2023-11-19T04:04:16;100457.78;;;11.45;100.00
67109;BME280;54027;50.786;7.058;2023-11-19T04:06:41;100463.63;;;11.56;100.00
67109;BME280;54027;50.786;7.058;2023-11-19T04:09:07;100466.06;;;11.65;100.00
67109;BME280;54027;50.786;7.058;2023-11-19T04:11:32;100465.97;;;11.70;100.00
67109;BME280;54027;50.786;7.058;2023-11-19T04:13:57;100470.91;;;11.83;100.00
67109;BME280;54027;50.786;7.058;2023-11-19T04:16:27;100469.94;;;11.89;100.00
67109;BME280;54027;50.786;7.058;2023-11-19T04:18:54;100465.34;;;12.05;100.00
67109;BME280;54027;50.786;7.058;2023-11-19T04:21:19;100465.94;;;12.17;100.00
67109;BME280;54027;50.786;7.058;2023-11-19T04:23:44;100464.03;;;12.27;100.00
67109;BME280;54027;50.786;7.058;2023-11-19T04:26:09;100452.47;;;12.41;100.00
67109;BME280;54027;50.786;7.058;2023-11-19T04:28:35;100447.34;;;12.38;100.00
67109;BME280;54027;50.786;7.058;2023-11-19T04:31:00;100450.91;;;12.34;100.00
67109;BME280;54027;50.786;7.058;2023-11-19T04:33:26;100458.72;;;12.33;100.00
67109;BME280;54027;50.786;7.058;2023-11-19T04:35:51;100461.28;;;12.34;100.00
67109;BME280;54027;50.786;7.058;2023-11-19T04:38:16;100460.50;;;12.31;100.00
67109;BME280;54027;50.786;7.058;2023-11-19T04:40:42;100462.34;;;12.24;100.00
67109;BME280;54027;50.786;7.058;2023-11-19T04:43:07;100460.75;;;12.17;100.00
67109;BME280;54027;50.786;7.058;2023-11-19T04:45:32;100467.66;;;12.18;100.00
67109;BME280;54027;50.786;7.058;2023-11-19T04:47:58;100473.53;;;12.26;100.00
67109;BME280;54027;50.786;7.058;2023-11-19T04:50:27;100470.88;;;12.29;100.00
67109;BME280;54027;50.786;7.058;2023-11-19T04:52:52;100474.31;;;12.31;100.00
67109;BME280;54027;50.786;7.058;2023-11-19T04:55:19;100489.06;;;12.28;100.00
67109;BME280;54027;50.786;7.058;2023-11-19T04:57:44;100479.44;;;12.34;100.00
67109;BME280;54027;50.786;7.058;2023-11-19T05:00:10;100476.97;;;12.28;100.00
67109;BME280;54027;50.786;7.058;2023-11-19T05:02:36;100483.88;;;12.26;100.00
67109;BME280;54027;50.786;7.058;2023-11-19T05:05:02;100482.16;;;12.27;100.00
67109;BME280;54027;50.786;7.058;2023-11-19T05:07:29;100473.41;;;12.32;100.00
67109;BME280;54027;50.786;7.058;2023-11-19T05:09:55;100474.38;;;12.27;100.00
67109;BME280;54027;50.786;7.058;2023-11-19T05:12:20;100472.53;;;12.32;100.00
67109;BME280;54027;50.786;7.058;2023-11-19T05:14:46;100478.88;;;12.19;100.00
67109;BME280;54027;50.786;7.058;2023-11-19T05:17:15;100495.09;;;12.28;100.00
67109;BME280;54027;50.786;7.058;2023-11-19T05:19:40;100487.41;;;12.24;100.00
67109;BME280;54027;50.786;7.058;2023-11-19T05:22:05;100500.28;;;12.27;100.00
67109;BME280;54027;50.786;7.058;2023-11-19T05:24:31;100491.72;;;12.23;100.00
67109;BME280;54027;50.786;7.058;2023-11-19T05:26:57;100501.44;;;12.14;100.00
67109;BME280;54027;50.786;7.058;2023-11-19T05:29:23;100488.31;;;12.21;100.00
67109;BME280;54027;50.786;7.058;2023-11-19T05:31:48;100490.28;;;12.09;100.00
67109;BME280;54027;50.786;7.058;2023-11-19T05:34:13;100489.31;;;12.14;100.00
67109;BME280;54027;50.786;7.058;2023-11-19T05:36:40;100482.09;;;12.30;100.00
67109;BME280;54027;50.786;7.058;2023-11-19T05:39:05;100472.59;;;12.29;100.00
67109;BME280;54027;50.786;7.058;2023-11-19T05:41:30;100472.53;;;12.33;100.00
67109;BME280;54027;50.786;7.058;2023-11-19T05:43:56;100465.38;;;12.44;100.00
67109;BME280;54027;50.786;7.058;2023-11-19T05:46:21;100473.03;;;12.51;100.00
67109;BME280;54027;50.786;7.058;2023-11-19T05:48:47;100480.75;;;12.54;100.00
67109;BME280;54027;50.786;7.058;2023-11-19T05:51:12;100486.91;;;12.48;100.00
67109;BME280;54027;50.786;7.058;2023-11-19T05:53:40;100492.38;;;12.34;100.00
67109;BME280;54027;50.786;7.058;2023-11-19T05:56:05;100490.78;;;12.27;100.00
67109;BME280;54027;50.786;7.058;2023-11-19T05:58:32;100483.72;;;12.35;100.00
67109;BME280;54027;50.786;7.058;2023-11-19T06:00:58;100489.00;;;12.31;100.00
67109;BME280;54027;50.786;7.058;2023-11-19T06:03:26;100492.75;;;12.15;100.00
67109;BME280;54027;50.786;7.058;2023-11-19T06:05:52;100484.00;;;12.22;100.00
67109;BME280;54027;50.786;7.058;2023-11-19T06:08:23;100492.91;;;12.07;100.00
67109;BME280;54027;50.786;7.058;2023-11-19T06:10:52;100498.97;;;12.06;100.00
67109;BME280;54027;50.786;7.058;2023-11-19T06:13:18;100505.06;;;12.02;100.00
67109;BME280;54027;50.786;7.058;2023-11-19T06:15:44;100502.31;;;12.11;100.00
67109;BME280;54027;50.786;7.058;2023-11-19T06:18:10;100500.22;;;12.31;100.00
67109;BME280;54027;50.786;7.058;2023-11-19T06:20:37;100507.88;;;12.37;100.00
67109;BME280;54027;50.786;7.058;2023-11-19T06:23:03;100501.72;;;12.43;100.00
67109;BME280;54027;50.786;7.058;2023-11-19T06:25:28;100494.72;;;12.46;100.00
67109;BME280;54027;50.786;7.058;2023-11-19T06:27:53;100511.84;;;12.55;100.00
67109;BME280;54027;50.786;7.058;2023-11-19T06:30:19;100508.44;;;12.52;100.00
67109;BME280;54027;50.786;7.058;2023-11-19T06:32:45;100506.78;;;12.49;100.00
67109;BME280;54027;50.786;7.058;2023-11-19T06:35:10;100516.09;;;12.58;100.00
67109;BME280;54027;50.786;7.058;2023-11-19T06:37:38;100511.91;;;12.52;100.00
67109;BME280;54027;50.786;7.058;2023-11-19T06:40:04;100526.72;;;12.45;100.00
67109;BME280;54027;50.786;7.058;2023-11-19T06:42:30;100543.38;;;12.34;100.00
67109;BME280;54027;50.786;7.058;2023-11-19T06:44:55;100538.47;;;12.17;100.00
67109;BME280;54027;50.786;7.058;2023-11-19T06:47:22;100541.28;;;12.05;100.00
67109;BME280;54027;50.786;7.058;2023-11-19T06:49:50;100534.38;;;12.07;100.00
67109;BME280;54027;50.786;7.058;2023-11-19T06:52:16;100540.22;;;12.17;100.00
67109;BME280;54027;50.786;7.058;2023-11-19T06:54:41;100541.13;;;12.14;100.00
67109;BME280;54027;50.786;7.058;2023-11-19T06:57:06;100536.75;;;12.18;100.00
67109;BME280;54027;50.786;7.058;2023-11-19T06:59:32;100522.91;;;12.19;100.00
67109;BME280;54027;50.786;7.058;2023-11-19T07:01:58;100522.66;;;12.32;99.20
67109;BME280;54027;50.786;7.058;2023-11-19T07:04:24;100524.59;;;12.20;100.00
67109;BME280;54027;50.786;7.058;2023-11-19T07:06:49;100524.59;;;12.20;99.93
67109;BME280;54027;50.786;7.058;2023-11-19T07:09:15;100506.28;;;12.30;98.43
67109;BME280;54027;50.786;7.058;2023-11-19T07:11:41;100522.06;;;12.18;100.00
67109;BME280;54027;50.786;7.058;2023-11-19T07:14:09;100520.28;;;12.20;98.93
67109;BME280;54027;50.786;7.058;2023-11-19T07:16:35;100535.81;;;12.22;98.92
67109;BME280;54027;50.786;7.058;2023-11-19T07:19:03;100546.13;;;12.23;98.83
67109;BME280;54027;50.786;7.058;2023-11-19T07:21:29;100525.50;;;12.19;98.30
67109;BME280;54027;50.786;7.058;2023-11-19T07:23:57;100525.69;;;12.10;99.02
67109;BME280;54027;50.786;7.058;2023-11-19T07:26:23;100535.25;;;12.06;99.12
67109;BME280;54027;50.786;7.058;2023-11-19T07:28:49;100532.75;;;12.02;98.99
67109;BME280;54027;50.786;7.058;2023-11-19T07:31:15;100543.09;;;12.02;99.10
67109;BME280;54027;50.786;7.058;2023-11-19T07:33:41;100547.44;;;12.00;98.76
67109;BME280;54027;50.786;7.058;2023-11-19T07:36:10;100558.00;;;11.89;99.53
67109;BME280;54027;50.786;7.058;2023-11-19T07:38:36;100567.69;;;11.76;100.00
67109;BME280;54027;50.786;7.058;2023-11-19T07:41:01;100564.28;;;11.73;100.00
67109;BME280;54027;50.786;7.058;2023-11-19T07:43:26;100558.09;;;11.83;100.00
67109;BME280;54027;50.786;7.058;2023-11-19T07:45:52;100572.47;;;12.01;99.53
67109;BME280;54027;50.786;7.058;2023-11-19T07:48:17;100567.84;;;12.18;97.68
67109;BME280;54027;50.786;7.058;2023-11-19T07:50:48;100570.38;;;12.22;97.94
67109;BME280;54027;50.786;7.058;2023-11-19T07:53:15;100570.25;;;12.28;96.94
67109;BME280;54027;50.786;7.058;2023-11-19T07:55:41;100561.47;;;12.35;96.19
67109;BME280;54027;50.786;7.058;2023-11-19T07:58:06;100571.75;;;12.40;96.48
67109;BME280;54027;50.786;7.058;2023-11-19T08:00:31;100572.41;;;12.50;95.54
67109;BME280;54027;50.786;7.058;2023-11-19T08:02:57;100575.78;;;12.55;94.79
67109;BME280;54027;50.786;7.058;2023-11-19T08:05:22;100582.56;;;12.62;94.63
67109;BME280;54027;50.786;7.058;2023-11-19T08:07:50;100577.97;;;12.76;93.10
67109;BME280;54027;50.786;7.058;2023-11-19T08:10:15;100592.63;;;12.77;94.11
67109;BME280;54027;50.786;7.058;2023-11-19T08:12:40;100580.38;;;12.85;93.21
67109;BME280;54027;50.786;7.058;2023-11-19T08:15:06;100588.97;;;12.87;93.73
67109;BME280;54027;50.786;7.058;2023-11-19T08:17:32;100594.91;;;12.92;93.36
67109;BME280;54027;50.786;7.058;2023-11-19T08:19:57;100579.22;;;12.98;91.36
67109;BME280;54027;50.786;7.058;2023-11-19T08:22:25;100596.66;;;12.91;92.06
67109;BME280;54027;50.786;7.058;2023-11-19T08:24:51;100589.91;;;12.83;91.48
67109;BME280;54027;50.786;7.058;2023-11-19T08:27:16;100597.84;;;12.75;92.42
67109;BME280;54027;50.786;7.058;2023-11-19T08:29:41;100581.50;;;12.72;90.90
67109;BME280;54027;50.786;7.058;2023-11-19T08:32:07;100586.69;;;12.70;91.65
67109;BME280;54027;50.786;7.058;2023-11-19T08:34:32;100580.50;;;12.79;89.45
67109;BME280;54027;50.786;7.058;2023-11-19T08:36:59;100583.88;;;12.82;89.00
67109;BME280;54027;50.786;7.058;2023-11-19T08:39:25;100584.72;;;12.84;88.53
67109;BME280;54027;50.786;7.058;2023-11-19T08:41:50;100596.91;;;12.79;89.10
67109;BME280;54027;50.786;7.058;2023-11-19T08:44:16;100598.72;;;12.76;89.10
67109;BME280;54027;50.786;7.058;2023-11-19T08:46:50;100599.59;;;12.75;88.58
67109;BME280;54027;50.786;7.058;2023-11-19T08:49:16;100607.44;;;12.70;88.41
67109;BME280;54027;50.786;7.058;2023-11-19T08:51:41;100612.63;;;12.70;89.34
67109;BME280;54027;50.786;7.058;2023-11-19T08:54:07;100623.94;;;12.68;89.34
67109;BME280;54027;50.786;7.058;2023-11-19T08:56:32;100611.88;;;12.67;88.11
67109;BME280;54027;50.786;7.058;2023-11-19T08:58:59;100633.72;;;12.54;90.74
67109;BME280;54027;50.786;7.058;2023-11-19T09:01:25;100629.50;;;12.48;91.22
67109;BME280;54027;50.786;7.058;2023-11-19T09:03:51;100611.91;;;12.64;88.74
67109;BME280;54027;50.786;7.058;2023-11-19T09:06:16;100612.63;;;12.70;89.16
67109;BME280;54027;50.786;7.058;2023-11-19T09:08:44;100620.34;;;12.75;89.13
67109;BME280;54027;50.786;7.058;2023-11-19T09:11:10;100607.09;;;12.88;87.81
67109;BME280;54027;50.786;7.058;2023-11-19T09:13:35;100619.19;;;12.89;88.59
67109;BME280;54027;50.786;7.058;2023-11-19T09:16:01;100627.69;;;12.96;87.51
67109;BME280;54027;50.786;7.058;2023-11-19T09:18:30;100627.66;;;12.97;88.43
67109;BME280;54027;50.786;7.058;2023-11-19T09:20:57;100640.53;;;13.05;88.75
67109;BME280;54027;50.786;7.058;2023-11-19T09:23:22;100631.06;;;13.03;88.34
67109;BME280;54027;50.786;7.058;2023-11-19T09:25:49;100612.00;;;13.04;86.93
67109;BME280;54027;50.786;7.058;2023-11-19T09:28:15;100606.69;;;13.10;86.51
67109;BME280;54027;50.786;7.058;2023-11-19T09:30:40;100608.41;;;13.09;85.77
67109;BME280;54027;50.786;7.058;2023-11-19T09:33:05;100605.88;;;13.08;85.51
67109;BME280;54027;50.786;7.058;2023-11-19T09:35:31;100578.84;;;13.18;83.83
67109;BME280;54027;50.786;7.058;2023-11-19T09:37:56;100570.53;;;13.39;82.74
67109;BME280;54027;50.786;7.058;2023-11-19T09:40:22;100578.13;;;13.48;82.87
67109;BME280;54027;50.786;7.058;2023-11-19T09:42:47;100586.69;;;13.53;83.33
67109;BME280;54027;50.786;7.058;2023-11-19T09:45:15;100580.50;;;13.57;83.09
67109;BME280;54027;50.786;7.058;2023-11-19T09:47:44;100576.97;;;13.60;83.64
67109;BME280;54027;50.786;7.058;2023-11-19T09:50:18;100578.59;;;13.65;82.25
67109;BME280;54027;50.786;7.058;2023-11-19T09:52:44;100567.09;;;13.75;81.42
67109;BME280;54027;50.786;7.058;2023-11-19T09:55:10;100553.84;;;13.86;80.40
67109;BME280;54027;50.786;7.058;2023-11-19T09:57:39;100557.97;;;13.94;80.83
67109;BME280;54027;50.786;7.058;2023-11-19T10:00:07;100535.31;;;13.99;78.76
67109;BME280;54027;50.786;7.058;2023-11-19T10:02:33;100561.94;;;14.07;79.70
67109;BME280;54027;50.786;7.058;2023-11-19T10:05:04;100552.53;;;14.03;79.07
67109;BME280;54027;50.786;7.058;2023-11-19T10:07:31;100537.59;;;14.11;78.62
67109;BME280;54027;50.786;7.058;2023-11-19T10:09:59;100499.88;;;14.28;76.27
67109;BME280;54027;50.786;7.058;2023-11-19T10:12:26;100509.78;;;14.46;76.78
67109;BME280;54027;50.786;7.058;2023-11-19T10:14:52;100534.75;;;14.51;78.42
67109;BME280;54027;50.786;7.058;2023-11-19T10:17:19;100527.56;;;14.61;78.26
67109;BME280;54027;50.786;7.058;2023-11-19T10:19:44;100500.78;;;14.57;76.42
67109;BME280;54027;50.786;7.058;2023-11-19T10:22:10;100514.25;;;14.72;76.65
67109;BME280;54027;50.786;7.058;2023-11-19T10:24:36;100522.81;;;14.75;76.54
67109;BME280;54027;50.786;7.058;2023-11-19T10:30:30;100472.59;;;15.01;73.86
67109;BME280;54027;50.786;7.058;2023-11-19T10:33:11;100492.22;;;15.11;74.94
67109;BME280;54027;50.786;7.058;2023-11-19T10:36:05;100490.38;;;15.14;75.05
67109;BME280;54027;50.786;7.058;2023-11-19T10:38:30;100480.97;;;15.10;74.45
67109;BME280;54027;50.786;7.058;2023-11-19T10:40:56;100485.41;;;15.07;74.18
67109;BME280;54027;50.786;7.058;2023-11-19T10:43:22;100505.28;;;15.09;75.46
67109;BME280;54027;50.786;7.058;2023-11-19T10:45:48;100495.97;;;15.02;74.39
67109;BME280;54027;50.786;7.058;2023-11-19T10:48:14;100460.25;;;15.07;72.36
67109;BME280;54027;50.786;7.058;2023-11-19T10:50:41;100478.66;;;15.01;73.19
67109;BME280;54027;50.786;7.058;2023-11-19T10:53:08;100474.50;;;14.96;73.96
67109;BME280;54027;50.786;7.058;2023-11-19T10:55:36;100467.09;;;15.10;73.12
67109;BME280;54027;50.786;7.058;2023-11-19T11:00:34;100451.94;;;15.49;72.71
67109;BME280;54027;50.786;7.058;2023-11-19T11:03:08;100422.53;;;15.45;71.43
67109;BME280;54027;50.786;7.058;2023-11-19T11:05:36;100445.97;;;15.45;72.06
67109;BME280;54027;50.786;7.058;2023-11-19T11:08:06;100421.97;;;15.36;70.14
67109;BME280;54027;50.786;7.058;2023-11-19T11:10:32;100405.91;;;15.23;69.50
67109;BME280;54027;50.786;7.058;2023-11-19T11:13:02;100431.34;;;15.15;70.73
67109;BME280;54027;50.786;7.058;2023-11-19T11:15:30;100471.34;;;15.12;72.77
67109;BME280;54027;50.786;7.058;2023-11-19T11:18:02;100417.53;;;15.13;70.11
67109;BME280;54027;50.786;7.058;2023-11-19T11:20:31;100433.06;;;15.16;70.55
67109;BME280;54027;50.786;7.058;2023-11-19T11:23:22;100440.78;;;15.19;71.07
67109;BME280;54027;50.786;7.058;2023-11-19T11:26:11;100465.19;;;15.15;72.17
67109;BME280;54027;50.786;7.058;2023-11-19T11:39:52;100472.56;;;14.73;71.12
67109;BME280;54027;50.786;7.058;2023-11-19T11:43:02;100645.81;;;14.14;80.15
67109;BME280;54027;50.786;7.058;2023-11-19T11:45:38;100649.34;;;13.75;83.27
67109;BME280;54027;50.786;7.058;2023-11-19T11:48:15;100628.94;;;13.60;84.30
67109;BME280;54027;50.786;7.058;2023-11-19T11:50:50;100619.66;;;13.49;84.87
67109;BME280;54027;50.786;7.058;2023-11-19T11:53:17;100597.94;;;13.52;84.45
67109;BME280;54027;50.786;7.058;2023-11-19T11:56:16;100592.63;;;13.58;85.90
67109;BME280;54027;50.786;7.058;2023-11-19T11:58:54;100550.63;;;13.76;83.23
67109;BME280;54027;50.786;7.058;2023-11-19T12:01:20;100525.91;;;13.94;81.80
67109;BME280;54027;50.786;7.058;2023-11-19T12:03:46;100504.91;;;14.01;80.16
67109;BME280;54027;50.786;7.058;2023-11-19T12:06:11;100535.88;;;14.10;81.45
67109;BME280;54027;50.786;7.058;2023-11-19T12:08:38;100502.81;;;14.16;79.99
67109;BME280;54027;50.786;7.058;2023-11-19T12:11:05;100504.41;;;14.21;80.01
67109;BME280;54027;50.786;7.058;2023-11-19T12:13:53;100530.41;;;14.21;80.49
67109;BME280;54027;50.786;7.058;2023-11-19T12:16:20;100493.91;;;14.24;79.21
67109;BME280;54027;50.786;7.058;2023-11-19T12:18:47;100505.84;;;14.31;79.66
67109;BME280;54027;50.786;7.058;2023-11-19T12:21:27;100490.50;;;14.22;79.08
67109;BME280;54027;50.786;7.058;2023-11-19T12:23:54;100507.94;;;14.19;79.62
67109;BME280;54027;50.786;7.058;2023-11-19T12:26:37;100496.53;;;14.23;79.21
67109;BME280;54027;50.786;7.058;2023-11-19T12:29:03;100466.84;;;14.31;77.72
67109;BME280;54027;50.786;7.058;2023-11-19T12:31:32;100468.34;;;14.40;77.07
67109;BME280;54027;50.786;7.058;2023-11-19T12:33:58;100458.63;;;14.46;77.17
67109;BME280;54027;50.786;7.058;2023-11-19T12:36:23;100468.91;;;14.51;77.74
67109;BME280;54027;50.786;7.058;2023-11-19T12:38:49;100447.06;;;14.56;76.99
67109;BME280;54027;50.786;7.058;2023-11-19T12:41:16;100466.88;;;14.60;77.29
67109;BME280;54027;50.786;7.058;2023-11-19T12:43:45;100446.13;;;14.59;76.18
67109;BME280;54027;50.786;7.058;2023-11-19T12:46:21;100436.34;;;14.67;76.09
67109;BME280;54027;50.786;7.058;2023-11-19T12:48:50;100411.94;;;14.71;74.89
67109;BME280;54027;50.786;7.058;2023-11-19T12:51:16;100422.94;;;14.81;75.38
67109;BME280;54027;50.786;7.058;2023-11-19T12:53:52;100402.03;;;14.82;74.51
67109;BME280;54027;50.786;7.058;2023-11-19T12:56:23;100411.41;;;14.88;74.25
67109;BME280;54027;50.786;7.058;2023-11-19T12:58:48;100414.75;;;14.93;74.50
67109;BME280;54027;50.786;7.058;2023-11-19T13:01:19;100434.03;;;14.86;75.14
67109;BME280;54027;50.786;7.058;2023-11-19T13:03:46;100418.63;;;14.78;73.95
67109;BME280;54027;50.786;7.058;2023-11-19T13:06:13;100429.00;;;14.80;74.29
67109;BME280;54027;50.786;7.058;2023-11-19T13:08:43;100428.94;;;14.81;74.46
67109;BME280;54027;50.786;7.058;2023-11-19T13:11:14;100443.84;;;14.78;75.06
67109;BME280;54027;50.786;7.058;2023-11-19T13:13:59;100469.75;;;14.81;75.91
67109;BME280;54027;50.786;7.058;2023-11-19T13:16:28;100426.22;;;15.13;74.40
67109;BME280;54027;50.786;7.058;2023-11-19T13:19:30;100429.75;;;15.37;73.83
67109;BME280;54027;50.786;7.058;2023-11-19T13:22:04;100410.94;;;15.54;73.84
67109;BME280;54027;50.786;7.058;2023-11-19T13:24:30;100408.13;;;15.60;73.55